sensor_id;sensor_type;location;lat;lon;timestamp;temperature;humidity
52889;DHT22;41413;52.770;6.892;2022-10-31T00:01:25;13.80;99.90
52889;DHT22;41413;52.770;6.892;2022-10-31T00:03:53;13.80;99.90
52889;DHT22;41413;52.770;6.892;2022-10-31T00:06:20;13.60;99.90
52889;DHT22;41413;52.770;6.892;2022-10-31T00:08:54;13.70;99.90
52889;DHT22;41413;52.770;6.892;2022-10-31T00:11:22;13.70;99.90
52889;DHT22;41413;52.770;6.892;2022-10-31T00:13:49;13.70;99.90
52889;DHT22;41413;52.770;6.892;2022-10-31T00:16:21;13.60;99.90
52889;DHT22;41413;52.770;6.892;2022-10-31T00:18:52;13.60;99.90
52889;DHT22;41413;52.770;6.892;2022-10-31T00:21:19;13.50;99.90
52889;DHT22;41413;52.770;6.892;2022-10-31T00:23:46;13.50;99.90
52889;DHT22;41413;52.770;6.892;2022-10-31T00:26:13;13.50;99.90
52889;DHT22;41413;52.770;6.892;2022-10-31T00:28:40;13.40;99.90
52889;DHT22;41413;52.770;6.892;2022-10-31T00:31:08;13.40;99.90
52889;DHT22;41413;52.770;6.892;2022-10-31T00:33:36;13.40;99.90
52889;DHT22;41413;52.770;6.892;2022-10-31T00:36:05;13.30;99.90
52889;DHT22;41413;52.770;6.892;2022-10-31T00:38:32;13.30;99.90
52889;DHT22;41413;52.770;6.892;2022-10-31T00:40:59;13.30;99.90
52889;DHT22;41413;52.770;6.892;2022-10-31T00:43:25;13.30;99.90
52889;DHT22;41413;52.770;6.892;2022-10-31T00:45:52;13.30;99.90
52889;DHT22;41413;52.770;6.892;2022-10-31T00:48:18;13.30;99.90
52889;DHT22;41413;52.770;6.892;2022-10-31T00:50:46;13.20;99.90
52889;DHT22;41413;52.770;6.892;2022-10-31T00:53:13;13.30;99.90
52889;DHT22;41413;52.770;6.892;2022-10-31T00:55:39;13.20;99.90
52889;DHT22;41413;52.770;6.892;2022-10-31T00:58:06;13.20;99.90
52889;DHT22;41413;52.770;6.892;2022-10-31T01:00:33;13.20;99.90
52889;DHT22;41413;52.770;6.892;2022-10-31T01:02:59;13.20;99.90
52889;DHT22;41413;52.770;6.892;2022-10-31T01:05:27;13.10;99.90
52889;DHT22;41413;52.770;6.892;2022-10-31T01:07:53;13.10;99.90
52889;DHT22;41413;52.770;6.892;2022-10-31T01:10:20;13.20;99.90
52889;DHT22;41413;52.770;6.892;2022-10-31T01:12:48;13.10;99.90
52889;DHT22;41413;52.770;6.892;2022-10-31T01:15:18;13.10;99.90
52889;DHT22;41413;52.770;6.892;2022-10-31T01:17:45;13.10;99.90
52889;DHT22;41413;52.770;6.892;2022-10-31T01:20:14;13.10;99.90
52889;DHT22;41413;52.770;6.892;2022-10-31T01:22:41;13.20;99.90
52889;DHT22;41413;52.770;6.892;2022-10-31T01:25:09;13.20;99.90
52889;DHT22;41413;52.770;6.892;2022-10-31T01:27:35;13.20;99.90
52889;DHT22;41413;52.770;6.892;2022-10-31T01:30:03;13.20;99.90
52889;DHT22;41413;52.770;6.892;2022-10-31T01:32:30;13.10;99.90
52889;DHT22;41413;52.770;6.892;2022-10-31T01:34:57;13.10;99.90
52889;DHT22;41413;52.770;6.892;2022-10-31T01:37:23;13.10;99.90
52889;DHT22;41413;52.770;6.892;2022-10-31T01:39:50;13.00;99.90
52889;DHT22;41413;52.770;6.892;2022-10-31T01:42:19;13.00;99.90
52889;DHT22;41413;52.770;6.892;2022-10-31T01:44:56;13.00;99.90
52889;DHT22;41413;52.770;6.892;2022-10-31T01:47:34;13.00;99.90
52889;DHT22;41413;52.770;6.892;2022-10-31T01:50:10;13.00;99.90
52889;DHT22;41413;52.770;6.892;2022-10-31T01:52:40;12.90;99.90
52889;DHT22;41413;52.770;6.892;2022-10-31T01:55:18;12.90;99.90
52889;DHT22;41413;52.770;6.892;2022-10-31T01:57:48;12.90;99.90
52889;DHT22;41413;52.770;6.892;2022-10-31T02:00:17;12.90;99.90
52889;DHT22;41413;52.770;6.892;2022-10-31T02:02:45;12.80;99.90
52889;DHT22;41413;52.770;6.892;2022-10-31T02:05:17;12.80;99.90
52889;DHT22;41413;52.770;6.892;2022-10-31T02:08:13;12.80;99.90
52889;DHT22;41413;52.770;6.892;2022-10-31T02:10:42;12.80;99.90
52889;DHT22;41413;52.770;6.892;2022-10-31T02:13:10;12.70;99.90
52889;DHT22;41413;52.770;6.892;2022-10-31T02:15:38;12.70;99.90
52889;DHT22;41413;52.770;6.892;2022-10-31T02:18:05;12.70;99.90
52889;DHT22;41413;52.770;6.892;2022-10-31T02:26:19;12.60;99.90
52889;DHT22;41413;52.770;6.892;2022-10-31T02:29:23;12.60;99.90
52889;DHT22;41413;52.770;6.892;2022-10-31T02:32:44;12.60;99.90
52889;DHT22;41413;52.770;6.892;2022-10-31T02:35:13;12.50;99.90
52889;DHT22;41413;52.770;6.892;2022-10-31T02:40:33;12.50;99.90
52889;DHT22;41413;52.770;6.892;2022-10-31T02:45:58;12.40;99.90
52889;DHT22;41413;52.770;6.892;2022-10-31T02:48:29;12.40;99.90
52889;DHT22;41413;52.770;6.892;2022-10-31T02:51:02;12.30;99.90
52889;DHT22;41413;52.770;6.892;2022-10-31T02:53:37;12.20;99.90
52889;DHT22;41413;52.770;6.892;2022-10-31T02:56:12;12.20;99.90
52889;DHT22;41413;52.770;6.892;2022-10-31T02:58:47;12.10;99.90
52889;DHT22;41413;52.770;6.892;2022-10-31T03:04:25;12.00;99.90
52889;DHT22;41413;52.770;6.892;2022-10-31T03:15:33;11.90;99.90
52889;DHT22;41413;52.770;6.892;2022-10-31T03:18:06;11.90;99.90
52889;DHT22;41413;52.770;6.892;2022-10-31T03:20:43;11.80;99.90
52889;DHT22;41413;52.770;6.892;2022-10-31T03:23:14;11.80;99.90
52889;DHT22;41413;52.770;6.892;2022-10-31T03:25:42;11.80;99.90
52889;DHT22;41413;52.770;6.892;2022-10-31T03:28:11;11.70;99.90
52889;DHT22;41413;52.770;6.892;2022-10-31T03:30:42;11.70;99.90
52889;DHT22;41413;52.770;6.892;2022-10-31T03:33:13;11.70;99.90
52889;DHT22;41413;52.770;6.892;2022-10-31T03:35:42;11.60;99.90
52889;DHT22;41413;52.770;6.892;2022-10-31T03:38:12;11.50;99.90
52889;DHT22;41413;52.770;6.892;2022-10-31T03:40:41;11.50;99.90
52889;DHT22;41413;52.770;6.892;2022-10-31T03:43:17;11.40;99.90
52889;DHT22;41413;52.770;6.892;2022-10-31T03:45:46;11.40;99.90
52889;DHT22;41413;52.770;6.892;2022-10-31T03:48:15;11.30;99.90
52889;DHT22;41413;52.770;6.892;2022-10-31T03:53:56;11.20;99.90
52889;DHT22;41413;52.770;6.892;2022-10-31T03:56:44;11.20;99.90
52889;DHT22;41413;52.770;6.892;2022-10-31T03:59:33;11.20;99.90
52889;DHT22;41413;52.770;6.892;2022-10-31T04:02:07;11.30;99.90
52889;DHT22;41413;52.770;6.892;2022-10-31T04:04:35;11.30;99.90
52889;DHT22;41413;52.770;6.892;2022-10-31T04:07:04;11.30;99.90
52889;DHT22;41413;52.770;6.892;2022-10-31T04:09:34;11.30;99.90
52889;DHT22;41413;52.770;6.892;2022-10-31T04:12:03;11.30;99.90
52889;DHT22;41413;52.770;6.892;2022-10-31T04:14:34;11.20;99.90
52889;DHT22;41413;52.770;6.892;2022-10-31T04:17:02;11.00;99.90
52889;DHT22;41413;52.770;6.892;2022-10-31T04:19:29;11.00;99.90
52889;DHT22;41413;52.770;6.892;2022-10-31T04:21:56;11.00;99.90
52889;DHT22;41413;52.770;6.892;2022-10-31T04:24:23;10.90;99.90
52889;DHT22;41413;52.770;6.892;2022-10-31T04:26:49;10.80;99.90
52889;DHT22;41413;52.770;6.892;2022-10-31T04:29:16;10.80;99.90
52889;DHT22;41413;52.770;6.892;2022-10-31T04:31:42;10.70;99.90
52889;DHT22;41413;52.770;6.892;2022-10-31T04:34:09;10.60;99.90
52889;DHT22;41413;52.770;6.892;2022-10-31T04:36:36;10.70;99.90
52889;DHT22;41413;52.770;6.892;2022-10-31T04:39:02;10.70;99.90
52889;DHT22;41413;52.770;6.892;2022-10-31T04:41:29;10.70;99.90
52889;DHT22;41413;52.770;6.892;2022-10-31T04:43:56;10.60;99.90
52889;DHT22;41413;52.770;6.892;2022-10-31T04:46:22;10.60;99.90
52889;DHT22;41413;52.770;6.892;2022-10-31T04:48:49;10.60;99.90
52889;DHT22;41413;52.770;6.892;2022-10-31T04:51:15;10.70;99.90
52889;DHT22;41413;52.770;6.892;2022-10-31T04:53:42;10.70;99.90
52889;DHT22;41413;52.770;6.892;2022-10-31T04:56:09;10.70;99.90
52889;DHT22;41413;52.770;6.892;2022-10-31T04:58:35;10.60;99.90
52889;DHT22;41413;52.770;6.892;2022-10-31T05:01:02;10.50;99.90
52889;DHT22;41413;52.770;6.892;2022-10-31T05:03:29;10.40;99.90
52889;DHT22;41413;52.770;6.892;2022-10-31T05:05:55;10.40;99.90
52889;DHT22;41413;52.770;6.892;2022-10-31T05:08:22;10.40;99.90
52889;DHT22;41413;52.770;6.892;2022-10-31T05:10:49;10.30;99.90
52889;DHT22;41413;52.770;6.892;2022-10-31T05:13:16;10.30;99.90
52889;DHT22;41413;52.770;6.892;2022-10-31T05:15:42;10.30;99.90
52889;DHT22;41413;52.770;6.892;2022-10-31T05:18:09;10.40;99.90
52889;DHT22;41413;52.770;6.892;2022-10-31T05:20:36;10.30;99.90
52889;DHT22;41413;52.770;6.892;2022-10-31T05:23:02;10.20;99.90
52889;DHT22;41413;52.770;6.892;2022-10-31T05:25:29;10.10;99.90
52889;DHT22;41413;52.770;6.892;2022-10-31T05:27:56;10.10;99.90
52889;DHT22;41413;52.770;6.892;2022-10-31T05:30:29;10.10;99.90
52889;DHT22;41413;52.770;6.892;2022-10-31T05:32:56;10.00;99.90
52889;DHT22;41413;52.770;6.892;2022-10-31T05:35:28;10.00;99.90
52889;DHT22;41413;52.770;6.892;2022-10-31T05:37:56;10.10;99.90
52889;DHT22;41413;52.770;6.892;2022-10-31T05:40:24;10.10;99.90
52889;DHT22;41413;52.770;6.892;2022-10-31T05:42:53;10.10;99.90
52889;DHT22;41413;52.770;6.892;2022-10-31T05:45:20;10.10;99.90
52889;DHT22;41413;52.770;6.892;2022-10-31T05:47:55;10.20;99.90
52889;DHT22;41413;52.770;6.892;2022-10-31T05:50:23;10.10;99.90
52889;DHT22;41413;52.770;6.892;2022-10-31T05:52:58;10.10;99.90
52889;DHT22;41413;52.770;6.892;2022-10-31T05:55:26;10.10;99.90
52889;DHT22;41413;52.770;6.892;2022-10-31T05:57:54;10.10;99.90
52889;DHT22;41413;52.770;6.892;2022-10-31T06:00:21;10.10;99.90
52889;DHT22;41413;52.770;6.892;2022-10-31T06:02:48;10.00;99.90
52889;DHT22;41413;52.770;6.892;2022-10-31T06:05:15;10.00;99.90
52889;DHT22;41413;52.770;6.892;2022-10-31T06:07:42;9.90;99.90
52889;DHT22;41413;52.770;6.892;2022-10-31T06:10:10;9.90;99.90
52889;DHT22;41413;52.770;6.892;2022-10-31T06:12:37;9.90;99.90
52889;DHT22;41413;52.770;6.892;2022-10-31T06:15:08;9.90;99.90
52889;DHT22;41413;52.770;6.892;2022-10-31T06:17:35;9.90;99.90
52889;DHT22;41413;52.770;6.892;2022-10-31T06:20:03;9.90;99.90
52889;DHT22;41413;52.770;6.892;2022-10-31T06:22:30;9.90;99.90
52889;DHT22;41413;52.770;6.892;2022-10-31T06:24:57;9.90;99.90
52889;DHT22;41413;52.770;6.892;2022-10-31T06:27:23;9.90;99.90
52889;DHT22;41413;52.770;6.892;2022-10-31T06:29:51;10.00;99.90
52889;DHT22;41413;52.770;6.892;2022-10-31T06:32:18;10.00;99.90
52889;DHT22;41413;52.770;6.892;2022-10-31T06:34:45;10.00;99.90
52889;DHT22;41413;52.770;6.892;2022-10-31T06:37:15;10.00;99.90
52889;DHT22;41413;52.770;6.892;2022-10-31T06:39:41;10.00;99.90
52889;DHT22;41413;52.770;6.892;2022-10-31T06:42:08;9.90;99.90
52889;DHT22;41413;52.770;6.892;2022-10-31T06:44:35;10.00;99.90
52889;DHT22;41413;52.770;6.892;2022-10-31T06:47:01;10.00;99.90
52889;DHT22;41413;52.770;6.892;2022-10-31T06:49:28;9.90;99.90
52889;DHT22;41413;52.770;6.892;2022-10-31T06:51:54;9.90;99.90
52889;DHT22;41413;52.770;6.892;2022-10-31T06:54:21;9.80;99.90
52889;DHT22;41413;52.770;6.892;2022-10-31T06:56:48;9.80;99.90
52889;DHT22;41413;52.770;6.892;2022-10-31T06:59:15;9.90;99.90
52889;DHT22;41413;52.770;6.892;2022-10-31T07:01:42;9.90;99.90
52889;DHT22;41413;52.770;6.892;2022-10-31T07:04:10;10.00;99.90
52889;DHT22;41413;52.770;6.892;2022-10-31T07:06:37;10.00;99.90
52889;DHT22;41413;52.770;6.892;2022-10-31T07:09:04;10.00;99.90
52889;DHT22;41413;52.770;6.892;2022-10-31T07:11:31;10.00;99.90
52889;DHT22;41413;52.770;6.892;2022-10-31T07:13:58;10.00;99.90
52889;DHT22;41413;52.770;6.892;2022-10-31T07:16:24;10.10;99.90
52889;DHT22;41413;52.770;6.892;2022-10-31T07:18:51;10.00;99.90
52889;DHT22;41413;52.770;6.892;2022-10-31T07:21:17;10.10;99.90
52889;DHT22;41413;52.770;6.892;2022-10-31T07:23:47;10.10;99.90
52889;DHT22;41413;52.770;6.892;2022-10-31T07:26:14;10.10;99.90
52889;DHT22;41413;52.770;6.892;2022-10-31T07:28:41;10.10;99.90
52889;DHT22;41413;52.770;6.892;2022-10-31T07:31:07;10.10;99.90
52889;DHT22;41413;52.770;6.892;2022-10-31T07:33:34;10.10;99.90
52889;DHT22;41413;52.770;6.892;2022-10-31T07:36:01;10.10;99.90
52889;DHT22;41413;52.770;6.892;2022-10-31T07:38:27;10.10;99.90
52889;DHT22;41413;52.770;6.892;2022-10-31T07:40:54;10.10;99.90
52889;DHT22;41413;52.770;6.892;2022-10-31T07:43:21;10.10;99.90
52889;DHT22;41413;52.770;6.892;2022-10-31T07:45:51;10.10;99.90
52889;DHT22;41413;52.770;6.892;2022-10-31T07:48:18;10.00;99.90
52889;DHT22;41413;52.770;6.892;2022-10-31T07:50:45;10.10;99.90
52889;DHT22;41413;52.770;6.892;2022-10-31T07:53:13;10.20;99.90
52889;DHT22;41413;52.770;6.892;2022-10-31T07:55:40;10.20;99.90
52889;DHT22;41413;52.770;6.892;2022-10-31T07:58:09;10.30;99.90
52889;DHT22;41413;52.770;6.892;2022-10-31T08:00:38;10.40;99.90
52889;DHT22;41413;52.770;6.892;2022-10-31T08:03:10;10.50;99.90
52889;DHT22;41413;52.770;6.892;2022-10-31T08:05:37;10.60;99.90
52889;DHT22;41413;52.770;6.892;2022-10-31T08:08:05;10.90;99.90
52889;DHT22;41413;52.770;6.892;2022-10-31T08:10:32;11.20;99.90
52889;DHT22;41413;52.770;6.892;2022-10-31T08:13:11;11.60;99.90
52889;DHT22;41413;52.770;6.892;2022-10-31T08:15:38;12.10;99.90
52889;DHT22;41413;52.770;6.892;2022-10-31T08:18:14;12.40;99.90
52889;DHT22;41413;52.770;6.892;2022-10-31T08:20:42;12.80;99.90
52889;DHT22;41413;52.770;6.892;2022-10-31T08:23:10;13.00;99.90
52889;DHT22;41413;52.770;6.892;2022-10-31T08:25:37;13.40;99.90
52889;DHT22;41413;52.770;6.892;2022-10-31T08:28:05;13.40;99.90
52889;DHT22;41413;52.770;6.892;2022-10-31T08:30:35;13.50;99.90
52889;DHT22;41413;52.770;6.892;2022-10-31T08:33:08;13.50;99.90
52889;DHT22;41413;52.770;6.892;2022-10-31T08:35:35;13.70;99.90
52889;DHT22;41413;52.770;6.892;2022-10-31T08:38:02;14.00;99.90
52889;DHT22;41413;52.770;6.892;2022-10-31T08:40:31;14.30;99.90
52889;DHT22;41413;52.770;6.892;2022-10-31T08:43:00;14.80;99.90
52889;DHT22;41413;52.770;6.892;2022-10-31T08:45:27;14.90;99.90
52889;DHT22;41413;52.770;6.892;2022-10-31T08:48:06;14.80;99.90
52889;DHT22;41413;52.770;6.892;2022-10-31T08:50:34;15.40;99.90
52889;DHT22;41413;52.770;6.892;2022-10-31T08:53:07;15.50;99.90
52889;DHT22;41413;52.770;6.892;2022-10-31T08:55:35;15.50;99.90
52889;DHT22;41413;52.770;6.892;2022-10-31T08:58:03;15.70;99.90
52889;DHT22;41413;52.770;6.892;2022-10-31T09:00:31;15.70;99.90
52889;DHT22;41413;52.770;6.892;2022-10-31T09:03:10;15.60;99.90
52889;DHT22;41413;52.770;6.892;2022-10-31T09:05:36;15.60;99.90
52889;DHT22;41413;52.770;6.892;2022-10-31T09:08:04;15.40;99.90
52889;DHT22;41413;52.770;6.892;2022-10-31T09:10:33;15.20;99.90
52889;DHT22;41413;52.770;6.892;2022-10-31T09:13:05;15.00;99.90
52889;DHT22;41413;52.770;6.892;2022-10-31T09:15:37;14.90;99.90
52889;DHT22;41413;52.770;6.892;2022-10-31T09:18:08;14.90;99.90
52889;DHT22;41413;52.770;6.892;2022-10-31T09:20:37;15.50;99.90
52889;DHT22;41413;52.770;6.892;2022-10-31T09:23:12;15.80;99.90
52889;DHT22;41413;52.770;6.892;2022-10-31T09:25:39;15.70;99.90
52889;DHT22;41413;52.770;6.892;2022-10-31T09:28:12;15.50;99.90
52889;DHT22;41413;52.770;6.892;2022-10-31T09:30:39;15.20;99.90
52889;DHT22;41413;52.770;6.892;2022-10-31T09:33:12;14.90;99.90
52889;DHT22;41413;52.770;6.892;2022-10-31T09:35:40;14.60;99.90
52889;DHT22;41413;52.770;6.892;2022-10-31T09:38:14;14.50;99.90
52889;DHT22;41413;52.770;6.892;2022-10-31T09:40:44;14.40;99.90
52889;DHT22;41413;52.770;6.892;2022-10-31T09:51:38;14.10;99.90
52889;DHT22;41413;52.770;6.892;2022-10-31T09:54:14;14.30;99.90
52889;DHT22;41413;52.770;6.892;2022-10-31T09:56:43;14.20;99.90
52889;DHT22;41413;52.770;6.892;2022-10-31T09:59:35;14.30;99.90
52889;DHT22;41413;52.770;6.892;2022-10-31T10:04:53;14.40;99.90
52889;DHT22;41413;52.770;6.892;2022-10-31T10:07:49;14.40;99.90
52889;DHT22;41413;52.770;6.892;2022-10-31T10:27:03;14.80;99.90
52889;DHT22;41413;52.770;6.892;2022-10-31T10:29:44;14.80;99.90
52889;DHT22;41413;52.770;6.892;2022-10-31T10:32:24;15.00;99.90
52889;DHT22;41413;52.770;6.892;2022-10-31T10:34:58;15.00;99.90
52889;DHT22;41413;52.770;6.892;2022-10-31T10:37:34;15.10;99.90
52889;DHT22;41413;52.770;6.892;2022-10-31T10:42:35;15.10;99.90
52889;DHT22;41413;52.770;6.892;2022-10-31T10:45:21;15.10;99.90
52889;DHT22;41413;52.770;6.892;2022-10-31T10:48:55;15.10;99.90
52889;DHT22;41413;52.770;6.892;2022-10-31T10:51:00;15.00;99.90
52889;DHT22;41413;52.770;6.892;2022-10-31T10:53:50;14.90;99.90
52889;DHT22;41413;52.770;6.892;2022-10-31T10:56:41;15.00;99.90
52889;DHT22;41413;52.770;6.892;2022-10-31T10:59:15;15.00;99.90
52889;DHT22;41413;52.770;6.892;2022-10-31T11:01:43;15.00;99.90
52889;DHT22;41413;52.770;6.892;2022-10-31T11:04:34;15.10;99.90
52889;DHT22;41413;52.770;6.892;2022-10-31T11:07:10;15.20;99.90
52889;DHT22;41413;52.770;6.892;2022-10-31T11:09:37;15.20;99.90
52889;DHT22;41413;52.770;6.892;2022-10-31T11:12:15;15.30;99.90
52889;DHT22;41413;52.770;6.892;2022-10-31T11:14:47;15.30;99.90
52889;DHT22;41413;52.770;6.892;2022-10-31T11:17:36;15.30;99.90
52889;DHT22;41413;52.770;6.892;2022-10-31T11:22:46;15.30;99.90
52889;DHT22;41413;52.770;6.892;2022-10-31T11:27:46;15.30;99.90
52889;DHT22;41413;52.770;6.892;2022-10-31T11:30:14;15.30;99.90
52889;DHT22;41413;52.770;6.892;2022-10-31T11:32:48;15.40;99.90
52889;DHT22;41413;52.770;6.892;2022-10-31T11:35:18;15.30;99.90
52889;DHT22;41413;52.770;6.892;2022-10-31T11:37:48;15.30;99.90
52889;DHT22;41413;52.770;6.892;2022-10-31T11:40:21;15.30;99.90
52889;DHT22;41413;52.770;6.892;2022-10-31T11:42:50;15.40;99.90
52889;DHT22;41413;52.770;6.892;2022-10-31T11:45:29;15.40;99.90
52889;DHT22;41413;52.770;6.892;2022-10-31T11:47:58;15.50;99.90
52889;DHT22;41413;52.770;6.892;2022-10-31T11:50:37;15.50;99.90
52889;DHT22;41413;52.770;6.892;2022-10-31T11:53:16;15.50;99.90
52889;DHT22;41413;52.770;6.892;2022-10-31T11:55:43;15.60;99.90
52889;DHT22;41413;52.770;6.892;2022-10-31T11:58:24;15.60;99.90
52889;DHT22;41413;52.770;6.892;2022-10-31T12:00:56;15.60;99.90
52889;DHT22;41413;52.770;6.892;2022-10-31T12:08:24;15.60;99.90
52889;DHT22;41413;52.770;6.892;2022-10-31T12:13:37;15.80;99.90
52889;DHT22;41413;52.770;6.892;2022-10-31T12:16:27;15.80;99.90
52889;DHT22;41413;52.770;6.892;2022-10-31T12:19:24;15.80;99.90
52889;DHT22;41413;52.770;6.892;2022-10-31T12:22:05;15.90;99.90
52889;DHT22;41413;52.770;6.892;2022-10-31T12:24:46;15.90;99.90
52889;DHT22;41413;52.770;6.892;2022-10-31T12:27:26;16.00;99.90
52889;DHT22;41413;52.770;6.892;2022-10-31T12:30:19;16.00;99.90
52889;DHT22;41413;52.770;6.892;2022-10-31T12:35:56;16.10;99.90
52889;DHT22;41413;52.770;6.892;2022-10-31T12:41:24;16.30;99.90
52889;DHT22;41413;52.770;6.892;2022-10-31T12:46:46;16.40;99.90
52889;DHT22;41413;52.770;6.892;2022-10-31T12:52:34;16.70;99.90
52889;DHT22;41413;52.770;6.892;2022-10-31T12:58:27;16.90;99.90
52889;DHT22;41413;52.770;6.892;2022-10-31T13:01:30;16.80;99.90
52889;DHT22;41413;52.770;6.892;2022-10-31T13:06:35;16.70;99.90
52889;DHT22;41413;52.770;6.892;2022-10-31T13:09:13;16.80;99.90
52889;DHT22;41413;52.770;6.892;2022-10-31T13:11:58;17.00;99.90
52889;DHT22;41413;52.770;6.892;2022-10-31T13:14:34;17.00;99.90
52889;DHT22;41413;52.770;6.892;2022-10-31T13:17:04;16.90;99.90
52889;DHT22;41413;52.770;6.892;2022-10-31T13:19:38;16.80;99.90
52889;DHT22;41413;52.770;6.892;2022-10-31T13:25:13;16.70;99.90
52889;DHT22;41413;52.770;6.892;2022-10-31T13:27:59;16.60;99.90
52889;DHT22;41413;52.770;6.892;2022-10-31T13:30:33;16.50;99.90
52889;DHT22;41413;52.770;6.892;2022-10-31T13:33:12;16.60;99.90
52889;DHT22;41413;52.770;6.892;2022-10-31T13:35:49;16.60;99.90
52889;DHT22;41413;52.770;6.892;2022-10-31T13:44:18;16.50;99.90
52889;DHT22;41413;52.770;6.892;2022-10-31T13:46:46;16.40;99.90
52889;DHT22;41413;52.770;6.892;2022-10-31T13:52:14;16.30;99.90
52889;DHT22;41413;52.770;6.892;2022-10-31T13:54:47;16.30;99.90
52889;DHT22;41413;52.770;6.892;2022-10-31T13:57:31;16.30;99.90
52889;DHT22;41413;52.770;6.892;2022-10-31T14:00:04;16.30;99.90
52889;DHT22;41413;52.770;6.892;2022-10-31T14:02:35;16.20;99.90
52889;DHT22;41413;52.770;6.892;2022-10-31T14:07:48;16.30;99.90
52889;DHT22;41413;52.770;6.892;2022-10-31T14:10:31;16.20;99.90
52889;DHT22;41413;52.770;6.892;2022-10-31T14:13:14;16.20;99.90
52889;DHT22;41413;52.770;6.892;2022-10-31T14:15:51;16.30;99.90
52889;DHT22;41413;52.770;6.892;2022-10-31T14:18:39;16.30;99.90
52889;DHT22;41413;52.770;6.892;2022-10-31T14:23:51;16.30;99.90
52889;DHT22;41413;52.770;6.892;2022-10-31T14:26:31;16.30;99.90
52889;DHT22;41413;52.770;6.892;2022-10-31T14:29:22;16.30;99.90
52889;DHT22;41413;52.770;6.892;2022-10-31T14:31:56;16.20;99.90
52889;DHT22;41413;52.770;6.892;2022-10-31T14:34:34;16.20;99.90
52889;DHT22;41413;52.770;6.892;2022-10-31T14:37:30;16.10;99.90
52889;DHT22;41413;52.770;6.892;2022-10-31T14:40:17;16.10;99.90
52889;DHT22;41413;52.770;6.892;2022-10-31T14:46:01;16.00;99.90
52889;DHT22;41413;52.770;6.892;2022-10-31T14:48:41;16.00;99.90
52889;DHT22;41413;52.770;6.892;2022-10-31T14:51:17;16.00;99.90
52889;DHT22;41413;52.770;6.892;2022-10-31T14:53:53;15.90;99.90
52889;DHT22;41413;52.770;6.892;2022-10-31T14:56:27;15.90;99.90
52889;DHT22;41413;52.770;6.892;2022-10-31T14:58:56;15.80;99.90
52889;DHT22;41413;52.770;6.892;2022-10-31T15:01:32;15.90;99.90
52889;DHT22;41413;52.770;6.892;2022-10-31T15:04:10;15.90;99.90
52889;DHT22;41413;52.770;6.892;2022-10-31T15:07:00;15.80;99.90
52889;DHT22;41413;52.770;6.892;2022-10-31T15:09:31;15.70;99.90
52889;DHT22;41413;52.770;6.892;2022-10-31T15:11:59;15.70;99.90
52889;DHT22;41413;52.770;6.892;2022-10-31T15:14:29;15.80;99.90
52889;DHT22;41413;52.770;6.892;2022-10-31T15:16:57;15.60;99.90
52889;DHT22;41413;52.770;6.892;2022-10-31T15:19:27;15.70;99.90
52889;DHT22;41413;52.770;6.892;2022-10-31T15:21:56;15.70;99.90
52889;DHT22;41413;52.770;6.892;2022-10-31T15:24:25;15.60;99.90
52889;DHT22;41413;52.770;6.892;2022-10-31T15:26:54;15.60;99.90
52889;DHT22;41413;52.770;6.892;2022-10-31T15:29:26;15.60;99.90
52889;DHT22;41413;52.770;6.892;2022-10-31T15:34:37;15.60;99.90
52889;DHT22;41413;52.770;6.892;2022-10-31T15:37:07;15.60;99.90
52889;DHT22;41413;52.770;6.892;2022-10-31T15:39:35;15.50;99.90
52889;DHT22;41413;52.770;6.892;2022-10-31T15:42:02;15.50;99.90
52889;DHT22;41413;52.770;6.892;2022-10-31T15:44:32;15.40;99.90
52889;DHT22;41413;52.770;6.892;2022-10-31T15:47:17;15.50;99.90
52889;DHT22;41413;52.770;6.892;2022-10-31T15:49:48;15.40;99.90
52889;DHT22;41413;52.770;6.892;2022-10-31T15:52:29;15.40;99.90
52889;DHT22;41413;52.770;6.892;2022-10-31T15:55:05;15.30;99.90
52889;DHT22;41413;52.770;6.892;2022-10-31T15:57:47;15.30;99.90
52889;DHT22;41413;52.770;6.892;2022-10-31T16:00:25;15.40;99.90
52889;DHT22;41413;52.770;6.892;2022-10-31T16:08:34;15.30;99.90
52889;DHT22;41413;52.770;6.892;2022-10-31T16:13:53;15.20;99.90
52889;DHT22;41413;52.770;6.892;2022-10-31T16:16:20;15.20;99.90
52889;DHT22;41413;52.770;6.892;2022-10-31T16:19:03;15.20;99.90
52889;DHT22;41413;52.770;6.892;2022-10-31T16:21:37;15.10;99.90
52889;DHT22;41413;52.770;6.892;2022-10-31T16:26:51;15.10;99.90
52889;DHT22;41413;52.770;6.892;2022-10-31T16:32:02;15.10;99.90
52889;DHT22;41413;52.770;6.892;2022-10-31T16:34:29;15.00;99.90
52889;DHT22;41413;52.770;6.892;2022-10-31T16:36:55;15.00;99.90
52889;DHT22;41413;52.770;6.892;2022-10-31T16:39:22;15.00;99.90
52889;DHT22;41413;52.770;6.892;2022-10-31T16:41:51;15.00;99.90
52889;DHT22;41413;52.770;6.892;2022-10-31T16:44:22;15.00;99.90
52889;DHT22;41413;52.770;6.892;2022-10-31T16:47:16;15.00;99.90
52889;DHT22;41413;52.770;6.892;2022-10-31T16:49:44;14.90;99.90
52889;DHT22;41413;52.770;6.892;2022-10-31T16:52:12;14.90;99.90
52889;DHT22;41413;52.770;6.892;2022-10-31T16:54:39;14.90;99.90
52889;DHT22;41413;52.770;6.892;2022-10-31T16:57:06;14.90;99.90
52889;DHT22;41413;52.770;6.892;2022-10-31T16:59:33;15.00;99.90
52889;DHT22;41413;52.770;6.892;2022-10-31T17:02:01;14.90;99.90
52889;DHT22;41413;52.770;6.892;2022-10-31T17:04:29;14.90;99.90
52889;DHT22;41413;52.770;6.892;2022-10-31T17:06:56;14.90;99.90
52889;DHT22;41413;52.770;6.892;2022-10-31T17:09:22;14.90;99.90
52889;DHT22;41413;52.770;6.892;2022-10-31T17:11:50;14.90;99.90
52889;DHT22;41413;52.770;6.892;2022-10-31T17:14:18;14.90;99.90
52889;DHT22;41413;52.770;6.892;2022-10-31T17:16:44;14.90;99.90
52889;DHT22;41413;52.770;6.892;2022-10-31T17:19:14;14.90;99.90
52889;DHT22;41413;52.770;6.892;2022-10-31T17:21:41;14.90;99.90
52889;DHT22;41413;52.770;6.892;2022-10-31T17:24:12;15.00;99.90
52889;DHT22;41413;52.770;6.892;2022-10-31T17:26:39;14.90;99.90
52889;DHT22;41413;52.770;6.892;2022-10-31T17:29:06;14.90;99.90
52889;DHT22;41413;52.770;6.892;2022-10-31T17:31:34;14.90;99.90
52889;DHT22;41413;52.770;6.892;2022-10-31T17:34:02;14.90;99.90
52889;DHT22;41413;52.770;6.892;2022-10-31T17:36:31;14.90;99.90
52889;DHT22;41413;52.770;6.892;2022-10-31T17:38:58;14.80;99.90
52889;DHT22;41413;52.770;6.892;2022-10-31T17:41:25;14.80;99.90
52889;DHT22;41413;52.770;6.892;2022-10-31T17:43:55;14.80;99.90
52889;DHT22;41413;52.770;6.892;2022-10-31T17:46:22;14.80;99.90
52889;DHT22;41413;52.770;6.892;2022-10-31T17:48:49;14.80;99.90
52889;DHT22;41413;52.770;6.892;2022-10-31T17:51:15;14.80;99.90
52889;DHT22;41413;52.770;6.892;2022-10-31T17:53:42;14.80;99.90
52889;DHT22;41413;52.770;6.892;2022-10-31T17:56:09;14.80;99.90
52889;DHT22;41413;52.770;6.892;2022-10-31T17:58:36;14.80;99.90
52889;DHT22;41413;52.770;6.892;2022-10-31T18:01:13;14.70;99.90
52889;DHT22;41413;52.770;6.892;2022-10-31T18:03:40;14.80;99.90